sensor_id;sensor_type;location;lat;lon;timestamp;P1;durP1;ratioP1;P2;durP2;ratioP2
55435;SDS011;41307;53.142;6.430;2023-07-29T00:01:41;5.10;;;1.90;;
55435;SDS011;41307;53.142;6.430;2023-07-29T00:04:07;4.43;;;2.00;;
55435;SDS011;41307;53.142;6.430;2023-07-29T00:06:36;2.92;;;1.67;;
55435;SDS011;41307;53.142;6.430;2023-07-29T00:09:02;3.03;;;1.83;;
55435;SDS011;41307;53.142;6.430;2023-07-29T00:11:31;3.20;;;1.95;;
55435;SDS011;41307;53.142;6.430;2023-07-29T00:13:59;3.33;;;1.77;;
55435;SDS011;41307;53.142;6.430;2023-07-29T00:16:26;3.30;;;2.22;;
55435;SDS011;41307;53.142;6.430;2023-07-29T00:18:55;3.03;;;1.80;;
55435;SDS011;41307;53.142;6.430;2023-07-29T00:21:26;4.72;;;2.30;;
55435;SDS011;41307;53.142;6.430;2023-07-29T00:23:52;3.83;;;2.08;;
55435;SDS011;41307;53.142;6.430;2023-07-29T00:26:18;3.45;;;1.80;;
55435;SDS011;41307;53.142;6.430;2023-07-29T00:28:44;4.22;;;2.13;;
55435;SDS011;41307;53.142;6.430;2023-07-29T00:31:19;3.92;;;2.30;;
55435;SDS011;41307;53.142;6.430;2023-07-29T00:33:51;4.28;;;2.25;;
55435;SDS011;41307;53.142;6.430;2023-07-29T00:36:20;3.70;;;2.30;;
55435;SDS011;41307;53.142;6.430;2023-07-29T00:38:49;2.83;;;1.70;;
55435;SDS011;41307;53.142;6.430;2023-07-29T00:41:22;3.55;;;2.00;;
55435;SDS011;41307;53.142;6.430;2023-07-29T00:43:57;4.55;;;2.25;;
55435;SDS011;41307;53.142;6.430;2023-07-29T00:46:36;3.47;;;2.03;;
55435;SDS011;41307;53.142;6.430;2023-07-29T00:49:07;3.75;;;2.05;;
55435;SDS011;41307;53.142;6.430;2023-07-29T00:51:33;3.38;;;2.10;;
55435;SDS011;41307;53.142;6.430;2023-07-29T00:54:01;5.25;;;2.00;;
55435;SDS011;41307;53.142;6.430;2023-07-29T00:56:27;2.67;;;1.90;;
55435;SDS011;41307;53.142;6.430;2023-07-29T00:59:02;4.80;;;2.35;;
55435;SDS011;41307;53.142;6.430;2023-07-29T01:01:31;4.45;;;2.30;;
55435;SDS011;41307;53.142;6.430;2023-07-29T01:04:00;3.50;;;2.72;;
55435;SDS011;41307;53.142;6.430;2023-07-29T01:09:25;4.15;;;2.00;;
55435;SDS011;41307;53.142;6.430;2023-07-29T01:12:18;5.30;;;2.35;;
55435;SDS011;41307;53.142;6.430;2023-07-29T01:15:13;3.95;;;2.10;;
55435;SDS011;41307;53.142;6.430;2023-07-29T01:17:55;3.22;;;2.33;;
55435;SDS011;41307;53.142;6.430;2023-07-29T01:20:42;3.83;;;2.28;;
55435;SDS011;41307;53.142;6.430;2023-07-29T01:25:57;3.83;;;2.40;;
55435;SDS011;41307;53.142;6.430;2023-07-29T01:28:27;4.10;;;2.10;;
55435;SDS011;41307;53.142;6.430;2023-07-29T01:31:20;4.35;;;2.60;;
55435;SDS011;41307;53.142;6.430;2023-07-29T01:34:00;4.50;;;2.60;;
55435;SDS011;41307;53.142;6.430;2023-07-29T01:36:35;4.65;;;2.47;;
55435;SDS011;41307;53.142;6.430;2023-07-29T01:39:07;5.75;;;2.90;;
55435;SDS011;41307;53.142;6.430;2023-07-29T01:41:36;4.00;;;2.60;;
55435;SDS011;41307;53.142;6.430;2023-07-29T01:44:03;5.15;;;2.70;;
55435;SDS011;41307;53.142;6.430;2023-07-29T01:46:33;7.30;;;3.28;;
55435;SDS011;41307;53.142;6.430;2023-07-29T01:48:59;3.78;;;2.45;;
55435;SDS011;41307;53.142;6.430;2023-07-29T01:51:30;5.28;;;2.88;;
55435;SDS011;41307;53.142;6.430;2023-07-29T01:53:59;4.32;;;2.30;;
55435;SDS011;41307;53.142;6.430;2023-07-29T01:56:30;5.80;;;2.80;;
55435;SDS011;41307;53.142;6.430;2023-07-29T01:58:56;5.45;;;2.63;;
55435;SDS011;41307;53.142;6.430;2023-07-29T02:01:22;4.57;;;2.78;;
55435;SDS011;41307;53.142;6.430;2023-07-29T02:03:49;5.88;;;3.20;;
55435;SDS011;41307;53.142;6.430;2023-07-29T02:06:23;4.65;;;2.65;;
55435;SDS011;41307;53.142;6.430;2023-07-29T02:08:49;5.00;;;2.72;;
55435;SDS011;41307;53.142;6.430;2023-07-29T02:11:18;6.47;;;2.90;;
55435;SDS011;41307;53.142;6.430;2023-07-29T02:13:45;6.47;;;3.20;;
55435;SDS011;41307;53.142;6.430;2023-07-29T02:16:17;5.32;;;2.63;;
55435;SDS011;41307;53.142;6.430;2023-07-29T02:18:46;3.92;;;2.42;;
55435;SDS011;41307;53.142;6.430;2023-07-29T02:21:26;4.78;;;2.72;;
55435;SDS011;41307;53.142;6.430;2023-07-29T02:23:58;5.53;;;2.70;;
55435;SDS011;41307;53.142;6.430;2023-07-29T02:26:24;4.30;;;2.53;;
55435;SDS011;41307;53.142;6.430;2023-07-29T02:28:51;5.70;;;2.83;;
55435;SDS011;41307;53.142;6.430;2023-07-29T02:31:25;4.72;;;2.65;;
55435;SDS011;41307;53.142;6.430;2023-07-29T02:34:00;3.92;;;2.42;;
55435;SDS011;41307;53.142;6.430;2023-07-29T02:36:29;4.80;;;2.80;;
55435;SDS011;41307;53.142;6.430;2023-07-29T02:38:55;4.88;;;2.47;;
55435;SDS011;41307;53.142;6.430;2023-07-29T02:41:26;4.65;;;3.15;;
55435;SDS011;41307;53.142;6.430;2023-07-29T02:43:55;5.43;;;2.83;;
55435;SDS011;41307;53.142;6.430;2023-07-29T02:46:21;4.80;;;2.38;;
55435;SDS011;41307;53.142;6.430;2023-07-29T02:48:47;3.58;;;2.38;;
55435;SDS011;41307;53.142;6.430;2023-07-29T02:51:13;5.72;;;3.22;;
55435;SDS011;41307;53.142;6.430;2023-07-29T02:53:41;5.32;;;3.15;;
55435;SDS011;41307;53.142;6.430;2023-07-29T02:56:15;6.25;;;2.85;;
55435;SDS011;41307;53.142;6.430;2023-07-29T02:58:41;6.50;;;2.90;;
55435;SDS011;41307;53.142;6.430;2023-07-29T03:01:15;5.10;;;2.92;;
55435;SDS011;41307;53.142;6.430;2023-07-29T03:03:48;3.35;;;2.15;;
55435;SDS011;41307;53.142;6.430;2023-07-29T03:06:16;4.25;;;2.58;;
55435;SDS011;41307;53.142;6.430;2023-07-29T03:08:50;5.10;;;2.85;;
55435;SDS011;41307;53.142;6.430;2023-07-29T03:11:24;4.55;;;2.67;;
55435;SDS011;41307;53.142;6.430;2023-07-29T03:13:53;5.90;;;2.65;;
55435;SDS011;41307;53.142;6.430;2023-07-29T03:16:26;5.25;;;2.05;;
55435;SDS011;41307;53.142;6.430;2023-07-29T03:18:55;4.80;;;2.45;;
55435;SDS011;41307;53.142;6.430;2023-07-29T03:21:24;5.35;;;2.55;;
55435;SDS011;41307;53.142;6.430;2023-07-29T03:23:56;5.03;;;2.55;;
55435;SDS011;41307;53.142;6.430;2023-07-29T03:26:22;4.65;;;2.28;;
55435;SDS011;41307;53.142;6.430;2023-07-29T03:28:48;4.78;;;2.97;;
55435;SDS011;41307;53.142;6.430;2023-07-29T03:31:14;5.50;;;2.72;;
55435;SDS011;41307;53.142;6.430;2023-07-29T03:33:42;5.25;;;2.17;;
55435;SDS011;41307;53.142;6.430;2023-07-29T03:36:08;4.22;;;2.25;;
55435;SDS011;41307;53.142;6.430;2023-07-29T03:38:36;4.75;;;2.30;;
55435;SDS011;41307;53.142;6.430;2023-07-29T03:41:09;4.90;;;2.30;;
55435;SDS011;41307;53.142;6.430;2023-07-29T03:43:44;5.03;;;2.77;;
55435;SDS011;41307;53.142;6.430;2023-07-29T03:46:12;5.32;;;2.60;;
55435;SDS011;41307;53.142;6.430;2023-07-29T03:48:44;3.70;;;2.35;;
55435;SDS011;41307;53.142;6.430;2023-07-29T03:51:16;4.40;;;2.60;;
55435;SDS011;41307;53.142;6.430;2023-07-29T03:53:45;6.05;;;2.40;;
55435;SDS011;41307;53.142;6.430;2023-07-29T03:56:11;3.35;;;2.00;;
55435;SDS011;41307;53.142;6.430;2023-07-29T03:58:36;4.32;;;2.30;;
55435;SDS011;41307;53.142;6.430;2023-07-29T04:01:02;6.45;;;2.40;;
55435;SDS011;41307;53.142;6.430;2023-07-29T04:03:34;5.55;;;2.53;;
55435;SDS011;41307;53.142;6.430;2023-07-29T04:06:08;3.63;;;2.10;;
55435;SDS011;41307;53.142;6.430;2023-07-29T04:08:37;4.25;;;1.77;;
55435;SDS011;41307;53.142;6.430;2023-07-29T04:11:13;4.38;;;2.20;;
55435;SDS011;41307;53.142;6.430;2023-07-29T04:13:38;4.30;;;1.75;;
55435;SDS011;41307;53.142;6.430;2023-07-29T04:16:04;4.05;;;2.22;;
55435;SDS011;41307;53.142;6.430;2023-07-29T04:18:42;3.78;;;2.03;;
55435;SDS011;41307;53.142;6.430;2023-07-29T04:21:16;4.50;;;1.80;;
55435;SDS011;41307;53.142;6.430;2023-07-29T04:23:50;4.28;;;2.00;;
55435;SDS011;41307;53.142;6.430;2023-07-29T04:26:16;3.67;;;1.90;;
55435;SDS011;41307;53.142;6.430;2023-07-29T04:28:54;4.20;;;1.85;;
55435;SDS011;41307;53.142;6.430;2023-07-29T04:31:31;3.35;;;1.83;;
55435;SDS011;41307;53.142;6.430;2023-07-29T04:33:57;3.63;;;1.92;;
55435;SDS011;41307;53.142;6.430;2023-07-29T04:36:32;2.80;;;1.55;;
55435;SDS011;41307;53.142;6.430;2023-07-29T04:39:00;2.95;;;1.70;;
55435;SDS011;41307;53.142;6.430;2023-07-29T04:41:28;4.38;;;2.03;;
55435;SDS011;41307;53.142;6.430;2023-07-29T04:44:03;4.95;;;1.85;;
55435;SDS011;41307;53.142;6.430;2023-07-29T04:46:32;2.88;;;1.35;;
55435;SDS011;41307;53.142;6.430;2023-07-29T04:49:03;3.25;;;1.80;;
55435;SDS011;41307;53.142;6.430;2023-07-29T04:51:31;3.47;;;1.80;;
55435;SDS011;41307;53.142;6.430;2023-07-29T04:53:58;3.15;;;1.35;;
55435;SDS011;41307;53.142;6.430;2023-07-29T04:56:36;2.22;;;1.00;;
55435;SDS011;41307;53.142;6.430;2023-07-29T04:59:11;4.50;;;1.65;;
55435;SDS011;41307;53.142;6.430;2023-07-29T05:01:46;2.13;;;1.15;;
55435;SDS011;41307;53.142;6.430;2023-07-29T05:04:17;3.22;;;1.30;;
55435;SDS011;41307;53.142;6.430;2023-07-29T05:06:55;2.65;;;1.40;;
55435;SDS011;41307;53.142;6.430;2023-07-29T05:09:31;2.85;;;1.20;;
55435;SDS011;41307;53.142;6.430;2023-07-29T05:11:59;2.75;;;1.17;;
55435;SDS011;41307;53.142;6.430;2023-07-29T05:14:29;2.78;;;1.02;;
55435;SDS011;41307;53.142;6.430;2023-07-29T05:16:54;1.80;;;1.00;;
55435;SDS011;41307;53.142;6.430;2023-07-29T05:19:20;3.00;;;1.10;;
55435;SDS011;41307;53.142;6.430;2023-07-29T05:21:52;3.72;;;1.05;;
55435;SDS011;41307;53.142;6.430;2023-07-29T05:24:26;2.58;;;1.33;;
55435;SDS011;41307;53.142;6.430;2023-07-29T05:26:52;2.65;;;1.27;;
55435;SDS011;41307;53.142;6.430;2023-07-29T05:29:25;3.20;;;1.27;;
55435;SDS011;41307;53.142;6.430;2023-07-29T05:31:51;2.45;;;1.30;;
55435;SDS011;41307;53.142;6.430;2023-07-29T05:34:20;1.67;;;0.90;;
55435;SDS011;41307;53.142;6.430;2023-07-29T05:36:57;2.30;;;1.02;;
55435;SDS011;41307;53.142;6.430;2023-07-29T05:39:26;2.65;;;1.05;;
55435;SDS011;41307;53.142;6.430;2023-07-29T05:41:58;2.47;;;1.23;;
55435;SDS011;41307;53.142;6.430;2023-07-29T05:44:27;2.50;;;1.25;;
55435;SDS011;41307;53.142;6.430;2023-07-29T05:46:56;2.92;;;1.55;;
55435;SDS011;41307;53.142;6.430;2023-07-29T05:49:25;5.13;;;1.60;;
55435;SDS011;41307;53.142;6.430;2023-07-29T05:51:50;2.63;;;1.00;;
55435;SDS011;41307;53.142;6.430;2023-07-29T05:54:22;2.80;;;1.25;;
55435;SDS011;41307;53.142;6.430;2023-07-29T05:56:51;1.77;;;0.75;;
55435;SDS011;41307;53.142;6.430;2023-07-29T05:59:16;2.63;;;0.95;;
55435;SDS011;41307;53.142;6.430;2023-07-29T06:01:42;2.70;;;1.15;;
55435;SDS011;41307;53.142;6.430;2023-07-29T06:04:11;3.00;;;1.30;;
55435;SDS011;41307;53.142;6.430;2023-07-29T06:06:40;2.97;;;1.00;;
55435;SDS011;41307;53.142;6.430;2023-07-29T06:09:05;2.85;;;1.30;;
55435;SDS011;41307;53.142;6.430;2023-07-29T06:11:31;2.20;;;0.68;;
55435;SDS011;41307;53.142;6.430;2023-07-29T06:13:57;2.55;;;1.20;;
55435;SDS011;41307;53.142;6.430;2023-07-29T06:16:23;1.80;;;0.93;;
55435;SDS011;41307;53.142;6.430;2023-07-29T06:18:52;1.75;;;0.80;;
55435;SDS011;41307;53.142;6.430;2023-07-29T06:21:24;5.95;;;3.10;;
55435;SDS011;41307;53.142;6.430;2023-07-29T06:23:53;1.92;;;1.02;;
55435;SDS011;41307;53.142;6.430;2023-07-29T06:26:25;2.75;;;0.98;;
55435;SDS011;41307;53.142;6.430;2023-07-29T06:28:59;2.20;;;0.90;;
55435;SDS011;41307;53.142;6.430;2023-07-29T06:31:28;1.98;;;0.70;;
55435;SDS011;41307;53.142;6.430;2023-07-29T06:33:54;1.60;;;0.90;;
55435;SDS011;41307;53.142;6.430;2023-07-29T06:36:26;1.58;;;0.70;;
55435;SDS011;41307;53.142;6.430;2023-07-29T06:38:55;1.75;;;0.90;;
55435;SDS011;41307;53.142;6.430;2023-07-29T06:41:24;2.55;;;0.95;;
55435;SDS011;41307;53.142;6.430;2023-07-29T06:43:50;1.98;;;0.70;;
55435;SDS011;41307;53.142;6.430;2023-07-29T06:46:15;1.40;;;0.68;;
55435;SDS011;41307;53.142;6.430;2023-07-29T06:48:44;2.92;;;0.75;;
55435;SDS011;41307;53.142;6.430;2023-07-29T06:51:21;2.03;;;0.80;;
55435;SDS011;41307;53.142;6.430;2023-07-29T06:53:49;4.03;;;0.90;;
55435;SDS011;41307;53.142;6.430;2023-07-29T06:56:19;4.82;;;0.80;;
55435;SDS011;41307;53.142;6.430;2023-07-29T06:58:45;2.08;;;0.68;;
55435;SDS011;41307;53.142;6.430;2023-07-29T07:01:15;2.40;;;0.80;;
55435;SDS011;41307;53.142;6.430;2023-07-29T07:03:46;3.83;;;1.00;;
55435;SDS011;41307;53.142;6.430;2023-07-29T07:06:12;2.40;;;0.70;;
55435;SDS011;41307;53.142;6.430;2023-07-29T07:08:38;1.30;;;0.77;;
55435;SDS011;41307;53.142;6.430;2023-07-29T07:11:09;2.83;;;0.98;;
55435;SDS011;41307;53.142;6.430;2023-07-29T07:13:35;2.13;;;0.93;;
55435;SDS011;41307;53.142;6.430;2023-07-29T07:16:00;2.65;;;0.80;;
55435;SDS011;41307;53.142;6.430;2023-07-29T07:18:26;2.05;;;0.90;;
55435;SDS011;41307;53.142;6.430;2023-07-29T07:20:52;2.45;;;1.10;;
55435;SDS011;41307;53.142;6.430;2023-07-29T07:23:18;3.83;;;0.90;;
55435;SDS011;41307;53.142;6.430;2023-07-29T07:25:44;2.22;;;0.80;;
55435;SDS011;41307;53.142;6.430;2023-07-29T07:28:10;1.92;;;1.08;;
55435;SDS011;41307;53.142;6.430;2023-07-29T07:30:39;2.47;;;1.40;;
55435;SDS011;41307;53.142;6.430;2023-07-29T07:33:11;2.05;;;1.17;;
55435;SDS011;41307;53.142;6.430;2023-07-29T07:35:40;1.52;;;0.90;;
55435;SDS011;41307;53.142;6.430;2023-07-29T07:38:08;1.80;;;1.00;;
55435;SDS011;41307;53.142;6.430;2023-07-29T07:40:35;2.42;;;0.82;;
55435;SDS011;41307;53.142;6.430;2023-07-29T07:43:04;2.53;;;1.15;;
55435;SDS011;41307;53.142;6.430;2023-07-29T07:45:31;2.17;;;1.02;;
55435;SDS011;41307;53.142;6.430;2023-07-29T07:47:57;2.78;;;1.02;;
55435;SDS011;41307;53.142;6.430;2023-07-29T07:50:28;3.25;;;1.13;;
55435;SDS011;41307;53.142;6.430;2023-07-29T07:52:55;2.33;;;1.23;;
55435;SDS011;41307;53.142;6.430;2023-07-29T07:55:21;1.67;;;0.90;;
55435;SDS011;41307;53.142;6.430;2023-07-29T07:57:47;2.03;;;1.17;;
55435;SDS011;41307;53.142;6.430;2023-07-29T08:00:12;2.42;;;1.10;;
55435;SDS011;41307;53.142;6.430;2023-07-29T08:02:41;2.60;;;1.30;;
55435;SDS011;41307;53.142;6.430;2023-07-29T08:05:12;1.30;;;0.77;;
55435;SDS011;41307;53.142;6.430;2023-07-29T08:07:41;3.00;;;0.80;;
55435;SDS011;41307;53.142;6.430;2023-07-29T08:10:07;1.73;;;0.90;;
55435;SDS011;41307;53.142;6.430;2023-07-29T08:12:33;2.15;;;0.90;;
55435;SDS011;41307;53.142;6.430;2023-07-29T08:14:59;2.28;;;0.65;;
55435;SDS011;41307;53.142;6.430;2023-07-29T08:17:25;1.40;;;0.65;;
55435;SDS011;41307;53.142;6.430;2023-07-29T08:19:50;1.98;;;0.55;;
55435;SDS011;41307;53.142;6.430;2023-07-29T08:22:16;1.08;;;0.60;;
55435;SDS011;41307;53.142;6.430;2023-07-29T08:24:42;1.90;;;0.80;;
55435;SDS011;41307;53.142;6.430;2023-07-29T08:27:08;1.50;;;0.77;;
55435;SDS011;41307;53.142;6.430;2023-07-29T08:29:34;1.25;;;0.52;;
55435;SDS011;41307;53.142;6.430;2023-07-29T08:32:00;1.38;;;0.80;;
55435;SDS011;41307;53.142;6.430;2023-07-29T08:34:26;1.90;;;0.75;;
55435;SDS011;41307;53.142;6.430;2023-07-29T08:36:55;1.30;;;0.70;;
55435;SDS011;41307;53.142;6.430;2023-07-29T08:39:27;1.30;;;0.50;;
55435;SDS011;41307;53.142;6.430;2023-07-29T08:42:03;0.68;;;0.40;;
55435;SDS011;41307;53.142;6.430;2023-07-29T08:44:38;1.52;;;0.60;;
55435;SDS011;41307;53.142;6.430;2023-07-29T08:47:08;0.98;;;0.47;;
55435;SDS011;41307;53.142;6.430;2023-07-29T08:49:35;2.13;;;0.50;;
55435;SDS011;41307;53.142;6.430;2023-07-29T08:52:02;2.28;;;0.40;;
55435;SDS011;41307;53.142;6.430;2023-07-29T08:54:30;1.20;;;0.40;;
55435;SDS011;41307;53.142;6.430;2023-07-29T08:56:56;1.67;;;0.63;;
55435;SDS011;41307;53.142;6.430;2023-07-29T08:59:35;1.38;;;0.47;;
55435;SDS011;41307;53.142;6.430;2023-07-29T09:02:05;0.60;;;0.45;;
55435;SDS011;41307;53.142;6.430;2023-07-29T09:04:34;2.33;;;0.57;;
55435;SDS011;41307;53.142;6.430;2023-07-29T09:07:00;0.88;;;0.40;;
55435;SDS011;41307;53.142;6.430;2023-07-29T09:09:27;3.38;;;0.52;;
55435;SDS011;41307;53.142;6.430;2023-07-29T09:11:55;2.58;;;0.73;;
55435;SDS011;41307;53.142;6.430;2023-07-29T09:14:21;1.25;;;0.40;;
55435;SDS011;41307;53.142;6.430;2023-07-29T09:16:49;0.28;;;0.28;;
55435;SDS011;41307;53.142;6.430;2023-07-29T09:19:15;1.00;;;0.50;;
55435;SDS011;41307;53.142;6.430;2023-07-29T09:21:41;0.52;;;0.35;;
55435;SDS011;41307;53.142;6.430;2023-07-29T09:24:23;2.47;;;0.80;;
55435;SDS011;41307;53.142;6.430;2023-07-29T09:29:15;0.30;;;0.20;;
55435;SDS011;41307;53.142;6.430;2023-07-29T09:31:46;1.27;;;0.40;;
55435;SDS011;41307;53.142;6.430;2023-07-29T09:34:15;1.98;;;0.40;;
55435;SDS011;41307;53.142;6.430;2023-07-29T09:36:46;0.50;;;0.30;;
55435;SDS011;41307;53.142;6.430;2023-07-29T09:39:15;1.25;;;0.30;;
55435;SDS011;41307;53.142;6.430;2023-07-29T09:41:41;0.40;;;0.28;;
55435;SDS011;41307;53.142;6.430;2023-07-29T09:44:14;0.65;;;0.25;;
55435;SDS011;41307;53.142;6.430;2023-07-29T09:46:40;0.63;;;0.20;;
55435;SDS011;41307;53.142;6.430;2023-07-29T09:49:08;1.92;;;0.32;;
55435;SDS011;41307;53.142;6.430;2023-07-29T09:51:37;1.50;;;0.50;;
55435;SDS011;41307;53.142;6.430;2023-07-29T09:54:04;1.13;;;0.40;;
55435;SDS011;41307;53.142;6.430;2023-07-29T09:56:38;0.52;;;0.30;;
55435;SDS011;41307;53.142;6.430;2023-07-29T09:59:06;1.17;;;0.40;;
55435;SDS011;41307;53.142;6.430;2023-07-29T10:01:32;0.95;;;0.30;;
55435;SDS011;41307;53.142;6.430;2023-07-29T10:04:00;1.45;;;0.30;;
55435;SDS011;41307;53.142;6.430;2023-07-29T10:06:26;0.63;;;0.30;;
55435;SDS011;41307;53.142;6.430;2023-07-29T10:08:53;1.08;;;0.30;;
55435;SDS011;41307;53.142;6.430;2023-07-29T10:11:20;1.90;;;0.30;;
55435;SDS011;41307;53.142;6.430;2023-07-29T10:13:46;2.15;;;0.47;;
55435;SDS011;41307;53.142;6.430;2023-07-29T10:16:13;0.75;;;0.35;;
55435;SDS011;41307;53.142;6.430;2023-07-29T10:18:40;0.68;;;0.30;;
55435;SDS011;41307;53.142;6.430;2023-07-29T10:21:07;0.75;;;0.20;;
55435;SDS011;41307;53.142;6.430;2023-07-29T10:23:37;0.80;;;0.35;;
55435;SDS011;41307;53.142;6.430;2023-07-29T10:26:09;0.68;;;0.40;;
55435;SDS011;41307;53.142;6.430;2023-07-29T10:28:36;0.60;;;0.52;;
55435;SDS011;41307;53.142;6.430;2023-07-29T10:31:06;0.70;;;0.20;;
55435;SDS011;41307;53.142;6.430;2023-07-29T10:33:32;0.40;;;0.20;;
55435;SDS011;41307;53.142;6.430;2023-07-29T10:35:59;0.88;;;0.30;;
55435;SDS011;41307;53.142;6.430;2023-07-29T10:38:26;1.10;;;0.30;;
55435;SDS011;41307;53.142;6.430;2023-07-29T10:40:53;0.30;;;0.20;;
55435;SDS011;41307;53.142;6.430;2023-07-29T10:43:25;0.73;;;0.20;;
55435;SDS011;41307;53.142;6.430;2023-07-29T10:45:56;1.38;;;0.30;;
55435;SDS011;41307;53.142;6.430;2023-07-29T10:53:57;1.13;;;0.40;;
55435;SDS011;41307;53.142;6.430;2023-07-29T10:58:57;0.30;;;0.20;;
55435;SDS011;41307;53.142;6.430;2023-07-29T11:01:41;0.75;;;0.25;;
55435;SDS011;41307;53.142;6.430;2023-07-29T11:15:42;1.02;;;0.38;;
55435;SDS011;41307;53.142;6.430;2023-07-29T11:17:56;1.45;;;0.20;;
55435;SDS011;41307;53.142;6.430;2023-07-29T11:20:30;0.98;;;0.20;;
55435;SDS011;41307;53.142;6.430;2023-07-29T11:22:58;0.40;;;0.30;;
55435;SDS011;41307;53.142;6.430;2023-07-29T11:25:26;1.65;;;0.28;;
55435;SDS011;41307;53.142;6.430;2023-07-29T11:27:53;0.40;;;0.20;;
55435;SDS011;41307;53.142;6.430;2023-07-29T11:30:20;0.70;;;0.30;;
55435;SDS011;41307;53.142;6.430;2023-07-29T11:32:48;0.50;;;0.30;;
55435;SDS011;41307;53.142;6.430;2023-07-29T11:35:17;0.75;;;0.38;;
55435;SDS011;41307;53.142;6.430;2023-07-29T11:37:47;1.08;;;0.30;;
55435;SDS011;41307;53.142;6.430;2023-07-29T11:40:21;1.00;;;0.32;;
55435;SDS011;41307;53.142;6.430;2023-07-29T11:42:48;0.82;;;0.32;;
55435;SDS011;41307;53.142;6.430;2023-07-29T11:45:16;0.93;;;0.40;;
55435;SDS011;41307;53.142;6.430;2023-07-29T11:47:42;1.90;;;0.63;;
55435;SDS011;41307;53.142;6.430;2023-07-29T11:50:08;1.30;;;0.40;;
55435;SDS011;41307;53.142;6.430;2023-07-29T11:52:36;2.88;;;0.60;;
55435;SDS011;41307;53.142;6.430;2023-07-29T11:55:03;1.48;;;0.40;;
55435;SDS011;41307;53.142;6.430;2023-07-29T11:57:30;2.38;;;0.60;;
55435;SDS011;41307;53.142;6.430;2023-07-29T11:59:56;0.98;;;0.40;;
55435;SDS011;41307;53.142;6.430;2023-07-29T12:02:23;0.90;;;0.45;;
55435;SDS011;41307;53.142;6.430;2023-07-29T12:04:50;1.17;;;0.50;;
55435;SDS011;41307;53.142;6.430;2023-07-29T12:07:17;0.70;;;0.55;;
55435;SDS011;41307;53.142;6.430;2023-07-29T12:09:44;1.00;;;0.60;;
55435;SDS011;41307;53.142;6.430;2023-07-29T12:12:11;1.65;;;0.60;;
55435;SDS011;41307;53.142;6.430;2023-07-29T12:14:37;1.42;;;0.60;;
55435;SDS011;41307;53.142;6.430;2023-07-29T12:17:03;1.25;;;0.50;;
55435;SDS011;41307;53.142;6.430;2023-07-29T12:19:31;0.82;;;0.50;;
55435;SDS011;41307;53.142;6.430;2023-07-29T12:21:58;0.93;;;0.40;;
55435;SDS011;41307;53.142;6.430;2023-07-29T12:24:23;1.67;;;0.65;;
55435;SDS011;41307;53.142;6.430;2023-07-29T12:26:49;1.45;;;0.60;;
55435;SDS011;41307;53.142;6.430;2023-07-29T12:29:17;1.13;;;0.57;;
55435;SDS011;41307;53.142;6.430;2023-07-29T12:31:47;2.08;;;0.65;;
55435;SDS011;41307;53.142;6.430;2023-07-29T12:34:18;1.10;;;0.40;;
55435;SDS011;41307;53.142;6.430;2023-07-29T12:36:49;0.88;;;0.50;;
55435;SDS011;41307;53.142;6.430;2023-07-29T12:39:28;2.35;;;0.52;;
55435;SDS011;41307;53.142;6.430;2023-07-29T12:41:56;1.67;;;0.40;;
55435;SDS011;41307;53.142;6.430;2023-07-29T12:44:24;0.82;;;0.50;;
55435;SDS011;41307;53.142;6.430;2023-07-29T12:46:51;1.27;;;0.55;;
55435;SDS011;41307;53.142;6.430;2023-07-29T12:49:17;1.45;;;0.68;;
55435;SDS011;41307;53.142;6.430;2023-07-29T12:51:43;2.42;;;0.55;;
55435;SDS011;41307;53.142;6.430;2023-07-29T12:54:09;0.50;;;0.32;;
55435;SDS011;41307;53.142;6.430;2023-07-29T12:56:35;1.00;;;0.50;;
55435;SDS011;41307;53.142;6.430;2023-07-29T12:59:01;1.38;;;0.50;;
55435;SDS011;41307;53.142;6.430;2023-07-29T13:01:28;0.68;;;0.28;;
55435;SDS011;41307;53.142;6.430;2023-07-29T13:03:54;0.47;;;0.32;;
55435;SDS011;41307;53.142;6.430;2023-07-29T13:06:21;0.68;;;0.40;;
55435;SDS011;41307;53.142;6.430;2023-07-29T13:08:47;1.65;;;0.47;;
55435;SDS011;41307;53.142;6.430;2023-07-29T13:11:13;1.77;;;0.45;;
55435;SDS011;41307;53.142;6.430;2023-07-29T13:13:39;0.98;;;0.40;;
55435;SDS011;41307;53.142;6.430;2023-07-29T13:16:05;0.82;;;0.40;;
55435;SDS011;41307;53.142;6.430;2023-07-29T13:18:31;0.90;;;0.55;;
55435;SDS011;41307;53.142;6.430;2023-07-29T13:20:57;1.55;;;0.50;;
55435;SDS011;41307;53.142;6.430;2023-07-29T13:23:25;0.85;;;0.40;;
55435;SDS011;41307;53.142;6.430;2023-07-29T13:25:50;1.92;;;0.80;;
55435;SDS011;41307;53.142;6.430;2023-07-29T13:28:16;1.58;;;0.73;;
55435;SDS011;41307;53.142;6.430;2023-07-29T13:30:42;0.75;;;0.38;;
55435;SDS011;41307;53.142;6.430;2023-07-29T13:33:08;1.88;;;0.55;;
55435;SDS011;41307;53.142;6.430;2023-07-29T13:35:34;2.00;;;0.40;;
55435;SDS011;41307;53.142;6.430;2023-07-29T13:38:00;0.60;;;0.35;;
55435;SDS011;41307;53.142;6.430;2023-07-29T13:40:26;0.63;;;0.38;;
55435;SDS011;41307;53.142;6.430;2023-07-29T13:42:52;1.77;;;0.50;;
55435;SDS011;41307;53.142;6.430;2023-07-29T13:45:18;1.67;;;0.63;;
55435;SDS011;41307;53.142;6.430;2023-07-29T13:47:44;0.88;;;0.40;;
55435;SDS011;41307;53.142;6.430;2023-07-29T13:50:10;1.77;;;0.57;;
55435;SDS011;41307;53.142;6.430;2023-07-29T13:52:37;0.55;;;0.30;;
55435;SDS011;41307;53.142;6.430;2023-07-29T13:55:03;3.97;;;0.80;;
55435;SDS011;41307;53.142;6.430;2023-07-29T13:57:30;1.30;;;0.50;;
55435;SDS011;41307;53.142;6.430;2023-07-29T13:59:56;2.42;;;0.85;;
55435;SDS011;41307;53.142;6.430;2023-07-29T14:02:21;0.88;;;0.50;;
55435;SDS011;41307;53.142;6.430;2023-07-29T14:04:47;1.52;;;0.45;;
55435;SDS011;41307;53.142;6.430;2023-07-29T14:07:13;1.65;;;0.50;;
55435;SDS011;41307;53.142;6.430;2023-07-29T14:09:39;1.48;;;0.50;;
55435;SDS011;41307;53.142;6.430;2023-07-29T14:12:06;1.23;;;0.63;;
55435;SDS011;41307;53.142;6.430;2023-07-29T14:14:32;1.38;;;0.50;;
55435;SDS011;41307;53.142;6.430;2023-07-29T14:16:57;0.85;;;0.40;;
55435;SDS011;41307;53.142;6.430;2023-07-29T14:19:23;2.28;;;0.70;;
55435;SDS011;41307;53.142;6.430;2023-07-29T14:21:49;1.17;;;0.77;;
55435;SDS011;41307;53.142;6.430;2023-07-29T14:24:15;2.35;;;0.60;;
55435;SDS011;41307;53.142;6.430;2023-07-29T14:26:41;2.22;;;0.50;;
55435;SDS011;41307;53.142;6.430;2023-07-29T14:29:07;2.28;;;0.40;;
55435;SDS011;41307;53.142;6.430;2023-07-29T14:31:33;0.95;;;0.63;;
55435;SDS011;41307;53.142;6.430;2023-07-29T14:33:59;1.70;;;0.60;;
55435;SDS011;41307;53.142;6.430;2023-07-29T14:36:25;1.40;;;0.40;;
55435;SDS011;41307;53.142;6.430;2023-07-29T14:38:51;0.88;;;0.45;;
55435;SDS011;41307;53.142;6.430;2023-07-29T14:41:17;0.82;;;0.47;;
55435;SDS011;41307;53.142;6.430;2023-07-29T14:43:43;0.90;;;0.50;;
55435;SDS011;41307;53.142;6.430;2023-07-29T14:46:08;1.45;;;0.40;;
55435;SDS011;41307;53.142;6.430;2023-07-29T14:48:34;1.10;;;0.60;;
55435;SDS011;41307;53.142;6.430;2023-07-29T14:51:00;1.77;;;0.40;;
55435;SDS011;41307;53.142;6.430;2023-07-29T14:53:26;3.22;;;0.70;;
55435;SDS011;41307;53.142;6.430;2023-07-29T14:55:51;0.70;;;0.40;;
55435;SDS011;41307;53.142;6.430;2023-07-29T14:58:17;0.65;;;0.43;;
55435;SDS011;41307;53.142;6.430;2023-07-29T15:00:43;1.02;;;0.40;;
55435;SDS011;41307;53.142;6.430;2023-07-29T15:03:09;0.68;;;0.28;;
55435;SDS011;41307;53.142;6.430;2023-07-29T15:05:35;0.93;;;0.50;;
55435;SDS011;41307;53.142;6.430;2023-07-29T15:08:00;2.60;;;0.45;;
55435;SDS011;41307;53.142;6.430;2023-07-29T15:10:26;1.40;;;0.40;;
55435;SDS011;41307;53.142;6.430;2023-07-29T15:12:52;1.40;;;0.38;;
55435;SDS011;41307;53.142;6.430;2023-07-29T15:15:18;1.45;;;0.45;;
55435;SDS011;41307;53.142;6.430;2023-07-29T15:17:44;1.55;;;0.57;;
55435;SDS011;41307;53.142;6.430;2023-07-29T15:20:10;1.00;;;0.38;;
55435;SDS011;41307;53.142;6.430;2023-07-29T15:22:36;0.40;;;0.22;;
55435;SDS011;41307;53.142;6.430;2023-07-29T15:25:03;0.80;;;0.40;;